Hurst Springs, Texas
Current Conditions -  °F | °C
As of 1:51 AM on Monday 24 Nov 2014 (Local Time) from KACT Reporting Station
Clear Clear  
Wind Chill: 44°   Ceiling: Unl
Heat Index: 47°   Visibility: 10mi
Dew Point: 37°   Wind: 7mph
Humidity: 68%   Direction: 310°NW
Pressure: 29.91"   Gusts: NA
Location:  31.7854°N, 97.5786°W
Report Text: KACT 240751Z 31006KT 10SM CLR 08/03 A2991 RMK AO2 SLP123 T00830028
Loading
Personal Weather Stations






























Interactive Weather Map New forecast layout! Learn more

10-Day Weather Forecast

Advertisements
Track Severe Weather on mobile